sensor_id;sensor_type;location;lat;lon;timestamp;P1;durP1;ratioP1;P2;durP2;ratioP2
19285;SDS011;9776;50.798;6.430;2024-01-11T00:00:08;30.27;;;13.93;;
19285;SDS011;9776;50.798;6.430;2024-01-11T00:02:37;29.13;;;13.20;;
19285;SDS011;9776;50.798;6.430;2024-01-11T00:05:04;29.30;;;13.27;;
19285;SDS011;9776;50.798;6.430;2024-01-11T00:07:32;28.57;;;12.80;;
19285;SDS011;9776;50.798;6.430;2024-01-11T00:10:00;29.33;;;13.50;;
19285;SDS011;9776;50.798;6.430;2024-01-11T00:12:27;33.00;;;13.37;;
19285;SDS011;9776;50.798;6.430;2024-01-11T00:14:54;30.23;;;14.07;;
19285;SDS011;9776;50.798;6.430;2024-01-11T00:17:21;27.70;;;13.23;;
19285;SDS011;9776;50.798;6.430;2024-01-11T00:19:49;30.30;;;13.40;;
19285;SDS011;9776;50.798;6.430;2024-01-11T00:22:16;29.23;;;13.67;;
19285;SDS011;9776;50.798;6.430;2024-01-11T00:24:43;30.73;;;13.03;;
19285;SDS011;9776;50.798;6.430;2024-01-11T00:27:10;29.53;;;13.23;;
19285;SDS011;9776;50.798;6.430;2024-01-11T00:29:36;25.50;;;12.80;;
19285;SDS011;9776;50.798;6.430;2024-01-11T00:32:03;30.10;;;13.23;;
19285;SDS011;9776;50.798;6.430;2024-01-11T00:34:30;28.27;;;13.17;;
19285;SDS011;9776;50.798;6.430;2024-01-11T00:36:58;28.30;;;13.53;;
19285;SDS011;9776;50.798;6.430;2024-01-11T00:39:24;28.87;;;13.77;;
19285;SDS011;9776;50.798;6.430;2024-01-11T00:41:51;28.00;;;12.90;;
19285;SDS011;9776;50.798;6.430;2024-01-11T00:44:18;26.53;;;12.77;;
19285;SDS011;9776;50.798;6.430;2024-01-11T00:46:45;27.73;;;13.50;;
19285;SDS011;9776;50.798;6.430;2024-01-11T00:49:12;30.23;;;13.60;;
19285;SDS011;9776;50.798;6.430;2024-01-11T00:51:38;31.47;;;13.67;;
19285;SDS011;9776;50.798;6.430;2024-01-11T00:54:07;32.00;;;13.40;;
19285;SDS011;9776;50.798;6.430;2024-01-11T00:56:33;27.70;;;13.37;;
19285;SDS011;9776;50.798;6.430;2024-01-11T00:59:00;29.93;;;14.27;;
19285;SDS011;9776;50.798;6.430;2024-01-11T01:01:27;34.33;;;13.90;;
19285;SDS011;9776;50.798;6.430;2024-01-11T01:03:55;30.33;;;12.60;;
19285;SDS011;9776;50.798;6.430;2024-01-11T01:06:22;23.30;;;12.00;;
19285;SDS011;9776;50.798;6.430;2024-01-11T01:08:49;31.63;;;12.67;;
19285;SDS011;9776;50.798;6.430;2024-01-11T01:11:17;28.33;;;12.97;;
19285;SDS011;9776;50.798;6.430;2024-01-11T01:13:44;29.80;;;12.87;;
19285;SDS011;9776;50.798;6.430;2024-01-11T01:16:11;26.00;;;11.70;;
19285;SDS011;9776;50.798;6.430;2024-01-11T01:18:38;27.83;;;12.20;;
19285;SDS011;9776;50.798;6.430;2024-01-11T01:21:04;25.90;;;11.13;;
19285;SDS011;9776;50.798;6.430;2024-01-11T01:23:32;27.53;;;12.43;;
19285;SDS011;9776;50.798;6.430;2024-01-11T01:25:59;29.93;;;12.43;;
19285;SDS011;9776;50.798;6.430;2024-01-11T01:28:27;32.37;;;13.40;;
19285;SDS011;9776;50.798;6.430;2024-01-11T01:30:54;27.27;;;12.50;;
19285;SDS011;9776;50.798;6.430;2024-01-11T01:33:21;25.43;;;11.67;;
19285;SDS011;9776;50.798;6.430;2024-01-11T01:35:47;32.33;;;12.27;;
19285;SDS011;9776;50.798;6.430;2024-01-11T01:38:14;29.50;;;12.93;;
19285;SDS011;9776;50.798;6.430;2024-01-11T01:40:42;26.57;;;11.97;;
19285;SDS011;9776;50.798;6.430;2024-01-11T01:43:09;31.20;;;12.43;;
19285;SDS011;9776;50.798;6.430;2024-01-11T01:45:39;25.80;;;12.23;;
19285;SDS011;9776;50.798;6.430;2024-01-11T01:48:06;27.80;;;12.13;;
19285;SDS011;9776;50.798;6.430;2024-01-11T01:50:33;31.90;;;12.10;;
19285;SDS011;9776;50.798;6.430;2024-01-11T01:53:01;27.73;;;12.03;;
19285;SDS011;9776;50.798;6.430;2024-01-11T01:55:28;29.33;;;12.47;;
19285;SDS011;9776;50.798;6.430;2024-01-11T01:57:55;25.40;;;11.77;;
19285;SDS011;9776;50.798;6.430;2024-01-11T02:00:24;29.27;;;12.03;;
19285;SDS011;9776;50.798;6.430;2024-01-11T02:02:53;30.57;;;12.83;;
19285;SDS011;9776;50.798;6.430;2024-01-11T02:05:21;28.60;;;11.73;;
19285;SDS011;9776;50.798;6.430;2024-01-11T02:07:48;26.43;;;11.93;;
19285;SDS011;9776;50.798;6.430;2024-01-11T02:10:16;23.40;;;11.47;;
19285;SDS011;9776;50.798;6.430;2024-01-11T02:12:43;27.40;;;13.30;;
19285;SDS011;9776;50.798;6.430;2024-01-11T02:15:10;27.70;;;12.27;;
19285;SDS011;9776;50.798;6.430;2024-01-11T02:17:38;27.17;;;11.73;;
19285;SDS011;9776;50.798;6.430;2024-01-11T02:20:08;27.50;;;12.30;;
19285;SDS011;9776;50.798;6.430;2024-01-11T02:22:38;25.13;;;12.17;;
19285;SDS011;9776;50.798;6.430;2024-01-11T02:25:08;28.93;;;12.47;;
19285;SDS011;9776;50.798;6.430;2024-01-11T02:27:44;29.07;;;12.17;;
19285;SDS011;9776;50.798;6.430;2024-01-11T02:30:12;27.73;;;13.03;;
19285;SDS011;9776;50.798;6.430;2024-01-11T02:32:39;25.80;;;12.37;;
19285;SDS011;9776;50.798;6.430;2024-01-11T02:35:07;28.83;;;12.70;;
19285;SDS011;9776;50.798;6.430;2024-01-11T02:37:34;29.10;;;12.53;;
19285;SDS011;9776;50.798;6.430;2024-01-11T02:40:04;29.70;;;12.97;;
19285;SDS011;9776;50.798;6.430;2024-01-11T02:42:34;24.27;;;12.20;;
19285;SDS011;9776;50.798;6.430;2024-01-11T02:45:01;28.90;;;11.90;;
19285;SDS011;9776;50.798;6.430;2024-01-11T02:47:29;29.57;;;12.07;;
19285;SDS011;9776;50.798;6.430;2024-01-11T02:49:56;29.67;;;13.10;;
19285;SDS011;9776;50.798;6.430;2024-01-11T02:52:23;29.50;;;14.07;;
19285;SDS011;9776;50.798;6.430;2024-01-11T02:54:50;31.53;;;14.07;;
19285;SDS011;9776;50.798;6.430;2024-01-11T02:57:15;31.67;;;12.27;;
19285;SDS011;9776;50.798;6.430;2024-01-11T02:59:44;32.37;;;14.47;;
19285;SDS011;9776;50.798;6.430;2024-01-11T03:02:11;31.60;;;13.50;;
19285;SDS011;9776;50.798;6.430;2024-01-11T03:04:37;29.93;;;13.13;;
19285;SDS011;9776;50.798;6.430;2024-01-11T03:07:04;28.97;;;12.87;;
19285;SDS011;9776;50.798;6.430;2024-01-11T03:09:31;26.53;;;11.20;;
19285;SDS011;9776;50.798;6.430;2024-01-11T03:11:59;28.37;;;11.87;;
19285;SDS011;9776;50.798;6.430;2024-01-11T03:14:26;28.77;;;12.63;;
19285;SDS011;9776;50.798;6.430;2024-01-11T03:16:54;25.27;;;12.37;;
19285;SDS011;9776;50.798;6.430;2024-01-11T03:19:21;29.10;;;12.60;;
19285;SDS011;9776;50.798;6.430;2024-01-11T03:21:47;29.57;;;12.40;;
19285;SDS011;9776;50.798;6.430;2024-01-11T03:24:14;28.93;;;12.03;;
19285;SDS011;9776;50.798;6.430;2024-01-11T03:26:41;25.30;;;11.93;;
19285;SDS011;9776;50.798;6.430;2024-01-11T03:29:08;25.97;;;12.10;;
19285;SDS011;9776;50.798;6.430;2024-01-11T03:31:34;26.73;;;12.67;;
19285;SDS011;9776;50.798;6.430;2024-01-11T03:34:04;28.03;;;12.07;;
19285;SDS011;9776;50.798;6.430;2024-01-11T03:36:31;27.37;;;12.10;;
19285;SDS011;9776;50.798;6.430;2024-01-11T03:38:58;29.10;;;11.47;;
19285;SDS011;9776;50.798;6.430;2024-01-11T03:41:24;27.60;;;12.57;;
19285;SDS011;9776;50.798;6.430;2024-01-11T03:43:51;30.27;;;11.87;;
19285;SDS011;9776;50.798;6.430;2024-01-11T03:46:18;27.53;;;12.57;;
19285;SDS011;9776;50.798;6.430;2024-01-11T03:48:45;31.67;;;11.97;;
19285;SDS011;9776;50.798;6.430;2024-01-11T03:51:13;26.37;;;12.27;;
19285;SDS011;9776;50.798;6.430;2024-01-11T03:53:40;28.73;;;11.60;;
19285;SDS011;9776;50.798;6.430;2024-01-11T03:56:07;28.50;;;11.83;;
19285;SDS011;9776;50.798;6.430;2024-01-11T03:58:35;24.87;;;11.00;;
19285;SDS011;9776;50.798;6.430;2024-01-11T04:01:04;26.97;;;12.20;;
19285;SDS011;9776;50.798;6.430;2024-01-11T04:03:32;28.80;;;12.67;;
19285;SDS011;9776;50.798;6.430;2024-01-11T04:05:59;27.30;;;11.50;;
19285;SDS011;9776;50.798;6.430;2024-01-11T04:08:27;27.60;;;11.90;;
19285;SDS011;9776;50.798;6.430;2024-01-11T04:10:54;24.43;;;11.17;;
19285;SDS011;9776;50.798;6.430;2024-01-11T04:13:20;24.77;;;11.10;;
19285;SDS011;9776;50.798;6.430;2024-01-11T04:15:47;25.63;;;11.20;;
19285;SDS011;9776;50.798;6.430;2024-01-11T04:18:14;28.27;;;11.40;;
19285;SDS011;9776;50.798;6.430;2024-01-11T04:20:40;27.47;;;12.13;;
19285;SDS011;9776;50.798;6.430;2024-01-11T04:23:07;26.57;;;11.60;;
19285;SDS011;9776;50.798;6.430;2024-01-11T04:25:36;27.17;;;11.70;;
19285;SDS011;9776;50.798;6.430;2024-01-11T04:28:03;25.83;;;11.00;;
19285;SDS011;9776;50.798;6.430;2024-01-11T04:30:31;32.00;;;12.33;;
19285;SDS011;9776;50.798;6.430;2024-01-11T04:32:58;31.27;;;12.90;;
19285;SDS011;9776;50.798;6.430;2024-01-11T04:35:24;26.50;;;12.17;;
19285;SDS011;9776;50.798;6.430;2024-01-11T04:37:51;24.30;;;11.67;;
19285;SDS011;9776;50.798;6.430;2024-01-11T04:40:18;27.80;;;12.90;;
19285;SDS011;9776;50.798;6.430;2024-01-11T04:42:46;28.37;;;12.13;;
19285;SDS011;9776;50.798;6.430;2024-01-11T04:45:12;30.47;;;13.70;;
19285;SDS011;9776;50.798;6.430;2024-01-11T04:47:39;27.47;;;13.30;;
19285;SDS011;9776;50.798;6.430;2024-01-11T04:50:07;29.93;;;12.83;;
19285;SDS011;9776;50.798;6.430;2024-01-11T04:52:35;31.93;;;14.23;;
19285;SDS011;9776;50.798;6.430;2024-01-11T04:55:01;29.23;;;12.50;;
19285;SDS011;9776;50.798;6.430;2024-01-11T04:57:28;28.27;;;12.23;;
19285;SDS011;9776;50.798;6.430;2024-01-11T04:59:56;30.17;;;11.43;;
19285;SDS011;9776;50.798;6.430;2024-01-11T05:02:23;25.40;;;11.73;;
19285;SDS011;9776;50.798;6.430;2024-01-11T05:04:50;27.50;;;12.30;;
19285;SDS011;9776;50.798;6.430;2024-01-11T05:07:16;25.13;;;11.83;;
19285;SDS011;9776;50.798;6.430;2024-01-11T05:09:43;31.20;;;12.90;;
19285;SDS011;9776;50.798;6.430;2024-01-11T05:12:10;28.00;;;11.57;;
19285;SDS011;9776;50.798;6.430;2024-01-11T05:14:37;28.70;;;12.27;;
19285;SDS011;9776;50.798;6.430;2024-01-11T05:17:05;28.97;;;12.80;;
19285;SDS011;9776;50.798;6.430;2024-01-11T05:19:33;25.97;;;11.80;;
19285;SDS011;9776;50.798;6.430;2024-01-11T05:21:59;29.30;;;12.60;;
19285;SDS011;9776;50.798;6.430;2024-01-11T05:24:26;29.03;;;13.03;;
19285;SDS011;9776;50.798;6.430;2024-01-11T05:26:53;29.47;;;13.37;;
19285;SDS011;9776;50.798;6.430;2024-01-11T05:29:20;35.37;;;13.67;;
19285;SDS011;9776;50.798;6.430;2024-01-11T05:31:47;34.20;;;13.30;;
19285;SDS011;9776;50.798;6.430;2024-01-11T05:34:15;34.07;;;13.10;;
19285;SDS011;9776;50.798;6.430;2024-01-11T05:36:41;35.20;;;14.03;;
19285;SDS011;9776;50.798;6.430;2024-01-11T05:39:08;30.77;;;11.70;;
19285;SDS011;9776;50.798;6.430;2024-01-11T05:41:35;32.17;;;14.57;;
19285;SDS011;9776;50.798;6.430;2024-01-11T05:44:02;32.97;;;14.67;;
19285;SDS011;9776;50.798;6.430;2024-01-11T05:46:29;38.00;;;15.93;;
19285;SDS011;9776;50.798;6.430;2024-01-11T05:48:56;30.83;;;14.30;;
19285;SDS011;9776;50.798;6.430;2024-01-11T05:51:24;33.10;;;15.37;;
19285;SDS011;9776;50.798;6.430;2024-01-11T05:53:52;39.63;;;19.70;;
19285;SDS011;9776;50.798;6.430;2024-01-11T05:56:18;38.87;;;17.77;;
19285;SDS011;9776;50.798;6.430;2024-01-11T05:58:46;40.33;;;18.07;;
19285;SDS011;9776;50.798;6.430;2024-01-11T06:01:13;39.93;;;17.73;;
19285;SDS011;9776;50.798;6.430;2024-01-11T06:03:40;36.87;;;17.77;;
19285;SDS011;9776;50.798;6.430;2024-01-11T06:06:06;32.73;;;15.83;;
19285;SDS011;9776;50.798;6.430;2024-01-11T06:08:35;38.40;;;16.47;;
19285;SDS011;9776;50.798;6.430;2024-01-11T06:11:02;40.03;;;18.83;;
19285;SDS011;9776;50.798;6.430;2024-01-11T06:13:29;42.27;;;18.40;;
19285;SDS011;9776;50.798;6.430;2024-01-11T06:15:56;47.50;;;19.13;;
19285;SDS011;9776;50.798;6.430;2024-01-11T06:18:23;37.97;;;15.20;;
19285;SDS011;9776;50.798;6.430;2024-01-11T06:20:49;30.37;;;14.60;;
19285;SDS011;9776;50.798;6.430;2024-01-11T06:23:16;35.93;;;14.30;;
19285;SDS011;9776;50.798;6.430;2024-01-11T06:25:46;31.33;;;14.00;;
19285;SDS011;9776;50.798;6.430;2024-01-11T06:28:12;30.57;;;14.83;;
19285;SDS011;9776;50.798;6.430;2024-01-11T06:30:39;34.23;;;14.67;;
19285;SDS011;9776;50.798;6.430;2024-01-11T06:33:06;32.40;;;15.20;;
19285;SDS011;9776;50.798;6.430;2024-01-11T06:35:33;36.73;;;15.20;;
19285;SDS011;9776;50.798;6.430;2024-01-11T06:37:59;33.63;;;14.43;;
19285;SDS011;9776;50.798;6.430;2024-01-11T06:40:26;29.93;;;13.63;;
19285;SDS011;9776;50.798;6.430;2024-01-11T06:42:54;31.10;;;14.87;;
19285;SDS011;9776;50.798;6.430;2024-01-11T06:45:21;38.23;;;15.27;;
19285;SDS011;9776;50.798;6.430;2024-01-11T06:47:48;33.73;;;14.57;;
19285;SDS011;9776;50.798;6.430;2024-01-11T06:50:15;30.07;;;14.40;;
19285;SDS011;9776;50.798;6.430;2024-01-11T06:52:42;28.93;;;13.40;;
19285;SDS011;9776;50.798;6.430;2024-01-11T06:55:09;28.93;;;13.50;;
19285;SDS011;9776;50.798;6.430;2024-01-11T06:57:36;32.87;;;13.93;;
19285;SDS011;9776;50.798;6.430;2024-01-11T07:00:05;30.10;;;13.87;;
19285;SDS011;9776;50.798;6.430;2024-01-11T07:02:33;34.27;;;14.27;;
19285;SDS011;9776;50.798;6.430;2024-01-11T07:05:00;31.97;;;14.37;;
19285;SDS011;9776;50.798;6.430;2024-01-11T07:07:27;32.87;;;15.27;;
19285;SDS011;9776;50.798;6.430;2024-01-11T07:09:56;32.40;;;15.37;;
19285;SDS011;9776;50.798;6.430;2024-01-11T07:12:23;31.70;;;13.87;;
19285;SDS011;9776;50.798;6.430;2024-01-11T07:14:50;31.30;;;14.00;;
19285;SDS011;9776;50.798;6.430;2024-01-11T07:17:21;36.03;;;15.70;;
19285;SDS011;9776;50.798;6.430;2024-01-11T07:19:48;29.97;;;13.30;;
19285;SDS011;9776;50.798;6.430;2024-01-11T07:22:15;32.43;;;14.10;;
19285;SDS011;9776;50.798;6.430;2024-01-11T07:24:42;39.53;;;17.07;;
19285;SDS011;9776;50.798;6.430;2024-01-11T07:27:12;53.00;;;21.53;;
19285;SDS011;9776;50.798;6.430;2024-01-11T07:29:41;47.03;;;21.43;;
19285;SDS011;9776;50.798;6.430;2024-01-11T07:32:08;41.90;;;16.70;;
19285;SDS011;9776;50.798;6.430;2024-01-11T07:34:36;37.97;;;15.50;;
19285;SDS011;9776;50.798;6.430;2024-01-11T07:37:03;30.43;;;12.10;;
19285;SDS011;9776;50.798;6.430;2024-01-11T07:39:30;28.97;;;13.03;;
19285;SDS011;9776;50.798;6.430;2024-01-11T07:42:07;24.53;;;12.30;;
19285;SDS011;9776;50.798;6.430;2024-01-11T07:44:38;28.80;;;12.30;;
19285;SDS011;9776;50.798;6.430;2024-01-11T07:47:08;34.00;;;13.00;;
19285;SDS011;9776;50.798;6.430;2024-01-11T07:49:39;30.10;;;12.63;;
19285;SDS011;9776;50.798;6.430;2024-01-11T07:52:09;28.53;;;12.50;;
19285;SDS011;9776;50.798;6.430;2024-01-11T07:54:43;28.17;;;12.47;;
19285;SDS011;9776;50.798;6.430;2024-01-11T07:57:13;28.20;;;12.40;;
19285;SDS011;9776;50.798;6.430;2024-01-11T07:59:40;26.57;;;12.20;;
19285;SDS011;9776;50.798;6.430;2024-01-11T08:02:07;33.33;;;14.13;;
19285;SDS011;9776;50.798;6.430;2024-01-11T08:04:33;30.13;;;13.60;;
19285;SDS011;9776;50.798;6.430;2024-01-11T08:07:01;30.27;;;14.27;;
19285;SDS011;9776;50.798;6.430;2024-01-11T08:09:29;34.90;;;14.87;;
19285;SDS011;9776;50.798;6.430;2024-01-11T08:11:56;33.67;;;14.90;;
19285;SDS011;9776;50.798;6.430;2024-01-11T08:14:23;29.53;;;14.10;;
19285;SDS011;9776;50.798;6.430;2024-01-11T08:16:50;35.83;;;15.10;;
19285;SDS011;9776;50.798;6.430;2024-01-11T08:19:18;37.70;;;15.13;;
19285;SDS011;9776;50.798;6.430;2024-01-11T08:21:45;40.47;;;15.97;;
19285;SDS011;9776;50.798;6.430;2024-01-11T08:24:13;30.60;;;14.67;;
19285;SDS011;9776;50.798;6.430;2024-01-11T08:26:40;36.27;;;15.00;;
19285;SDS011;9776;50.798;6.430;2024-01-11T08:29:08;32.80;;;15.13;;
19285;SDS011;9776;50.798;6.430;2024-01-11T08:31:35;35.47;;;15.20;;
19285;SDS011;9776;50.798;6.430;2024-01-11T08:34:01;38.63;;;16.53;;
19285;SDS011;9776;50.798;6.430;2024-01-11T08:36:30;35.20;;;14.83;;
19285;SDS011;9776;50.798;6.430;2024-01-11T08:38:59;44.10;;;16.70;;
19285;SDS011;9776;50.798;6.430;2024-01-11T08:41:27;38.00;;;16.30;;
19285;SDS011;9776;50.798;6.430;2024-01-11T08:43:54;43.30;;;17.13;;
19285;SDS011;9776;50.798;6.430;2024-01-11T08:46:24;40.63;;;18.17;;
19285;SDS011;9776;50.798;6.430;2024-01-11T08:48:51;36.60;;;16.90;;
19285;SDS011;9776;50.798;6.430;2024-01-11T08:51:19;40.10;;;17.80;;
19285;SDS011;9776;50.798;6.430;2024-01-11T08:53:46;38.70;;;16.97;;
19285;SDS011;9776;50.798;6.430;2024-01-11T08:56:13;41.63;;;17.63;;
19285;SDS011;9776;50.798;6.430;2024-01-11T08:58:43;42.43;;;18.67;;
19285;SDS011;9776;50.798;6.430;2024-01-11T09:01:10;39.00;;;18.87;;
19285;SDS011;9776;50.798;6.430;2024-01-11T09:03:37;42.40;;;20.17;;
19285;SDS011;9776;50.798;6.430;2024-01-11T09:06:04;42.90;;;18.70;;
19285;SDS011;9776;50.798;6.430;2024-01-11T09:08:31;38.97;;;17.80;;
19285;SDS011;9776;50.798;6.430;2024-01-11T09:11:01;43.33;;;19.73;;
19285;SDS011;9776;50.798;6.430;2024-01-11T09:13:28;48.67;;;21.97;;
19285;SDS011;9776;50.798;6.430;2024-01-11T09:15:57;39.33;;;19.33;;
19285;SDS011;9776;50.798;6.430;2024-01-11T09:18:24;44.67;;;20.07;;
19285;SDS011;9776;50.798;6.430;2024-01-11T09:20:51;42.93;;;20.70;;
19285;SDS011;9776;50.798;6.430;2024-01-11T09:23:18;40.50;;;20.33;;
19285;SDS011;9776;50.798;6.430;2024-01-11T09:25:45;47.57;;;20.47;;
19285;SDS011;9776;50.798;6.430;2024-01-11T09:28:12;46.43;;;20.20;;
19285;SDS011;9776;50.798;6.430;2024-01-11T09:30:38;49.97;;;20.97;;
19285;SDS011;9776;50.798;6.430;2024-01-11T09:33:07;49.73;;;21.50;;
19285;SDS011;9776;50.798;6.430;2024-01-11T09:35:34;46.40;;;22.03;;
19285;SDS011;9776;50.798;6.430;2024-01-11T09:38:04;48.63;;;21.80;;
19285;SDS011;9776;50.798;6.430;2024-01-11T09:40:31;45.63;;;22.30;;
19285;SDS011;9776;50.798;6.430;2024-01-11T09:42:58;53.00;;;22.20;;
19285;SDS011;9776;50.798;6.430;2024-01-11T09:45:26;49.93;;;22.63;;
19285;SDS011;9776;50.798;6.430;2024-01-11T09:47:53;48.43;;;22.50;;
19285;SDS011;9776;50.798;6.430;2024-01-11T09:50:21;56.17;;;24.07;;
19285;SDS011;9776;50.798;6.430;2024-01-11T09:52:50;48.47;;;21.87;;
19285;SDS011;9776;50.798;6.430;2024-01-11T09:55:18;52.10;;;23.30;;
19285;SDS011;9776;50.798;6.430;2024-01-11T09:57:46;46.60;;;21.97;;
19285;SDS011;9776;50.798;6.430;2024-01-11T10:00:16;48.40;;;21.33;;
19285;SDS011;9776;50.798;6.430;2024-01-11T10:02:44;47.47;;;21.63;;
19285;SDS011;9776;50.798;6.430;2024-01-11T10:05:12;47.40;;;21.60;;
19285;SDS011;9776;50.798;6.430;2024-01-11T10:07:41;47.20;;;21.47;;
19285;SDS011;9776;50.798;6.430;2024-01-11T10:10:08;48.67;;;22.73;;
19285;SDS011;9776;50.798;6.430;2024-01-11T10:12:36;51.60;;;23.00;;
19285;SDS011;9776;50.798;6.430;2024-01-11T10:15:07;44.53;;;20.97;;
19285;SDS011;9776;50.798;6.430;2024-01-11T10:17:35;39.53;;;20.73;;
19285;SDS011;9776;50.798;6.430;2024-01-11T10:20:03;47.60;;;22.20;;
19285;SDS011;9776;50.798;6.430;2024-01-11T10:22:30;52.47;;;22.20;;
19285;SDS011;9776;50.798;6.430;2024-01-11T10:25:11;55.50;;;23.23;;
19285;SDS011;9776;50.798;6.430;2024-01-11T10:27:40;49.10;;;22.50;;
19285;SDS011;9776;50.798;6.430;2024-01-11T10:30:08;53.07;;;22.57;;
19285;SDS011;9776;50.798;6.430;2024-01-11T10:32:38;49.23;;;22.87;;
19285;SDS011;9776;50.798;6.430;2024-01-11T10:35:05;51.60;;;23.60;;
19285;SDS011;9776;50.798;6.430;2024-01-11T10:37:32;49.83;;;23.70;;
19285;SDS011;9776;50.798;6.430;2024-01-11T10:40:02;54.40;;;23.77;;
19285;SDS011;9776;50.798;6.430;2024-01-11T10:42:36;45.13;;;22.73;;
19285;SDS011;9776;50.798;6.430;2024-01-11T10:45:06;50.57;;;22.97;;
19285;SDS011;9776;50.798;6.430;2024-01-11T10:47:40;50.47;;;23.03;;
19285;SDS011;9776;50.798;6.430;2024-01-11T10:50:13;59.73;;;23.97;;
19285;SDS011;9776;50.798;6.430;2024-01-11T10:52:46;53.63;;;23.43;;
19285;SDS011;9776;50.798;6.430;2024-01-11T10:55:26;59.53;;;24.90;;
19285;SDS011;9776;50.798;6.430;2024-01-11T10:57:56;55.93;;;24.33;;
19285;SDS011;9776;50.798;6.430;2024-01-11T11:00:25;54.83;;;23.57;;
19285;SDS011;9776;50.798;6.430;2024-01-11T11:02:53;49.00;;;23.77;;
19285;SDS011;9776;50.798;6.430;2024-01-11T11:05:21;61.00;;;26.63;;
19285;SDS011;9776;50.798;6.430;2024-01-11T11:07:49;79.87;;;35.03;;
19285;SDS011;9776;50.798;6.430;2024-01-11T11:10:17;67.53;;;32.10;;
19285;SDS011;9776;50.798;6.430;2024-01-11T11:12:45;51.90;;;26.53;;
19285;SDS011;9776;50.798;6.430;2024-01-11T11:15:14;58.87;;;25.53;;
19285;SDS011;9776;50.798;6.430;2024-01-11T11:17:41;55.77;;;24.50;;
19285;SDS011;9776;50.798;6.430;2024-01-11T11:20:10;55.17;;;25.60;;
19285;SDS011;9776;50.798;6.430;2024-01-11T11:22:39;61.23;;;27.10;;
19285;SDS011;9776;50.798;6.430;2024-01-11T11:25:08;54.40;;;24.80;;
19285;SDS011;9776;50.798;6.430;2024-01-11T11:27:35;64.77;;;28.27;;
19285;SDS011;9776;50.798;6.430;2024-01-11T11:30:03;54.57;;;25.07;;
19285;SDS011;9776;50.798;6.430;2024-01-11T11:32:38;56.80;;;26.43;;
19285;SDS011;9776;50.798;6.430;2024-01-11T11:35:09;62.17;;;26.93;;
19285;SDS011;9776;50.798;6.430;2024-01-11T11:37:36;54.83;;;23.60;;
19285;SDS011;9776;50.798;6.430;2024-01-11T11:40:04;53.70;;;23.50;;
19285;SDS011;9776;50.798;6.430;2024-01-11T11:42:33;53.80;;;24.33;;
19285;SDS011;9776;50.798;6.430;2024-01-11T11:45:00;52.30;;;25.80;;
19285;SDS011;9776;50.798;6.430;2024-01-11T11:47:33;49.93;;;25.73;;
19285;SDS011;9776;50.798;6.430;2024-01-11T11:50:06;51.40;;;25.30;;
19285;SDS011;9776;50.798;6.430;2024-01-11T11:52:35;52.10;;;25.53;;
19285;SDS011;9776;50.798;6.430;2024-01-11T11:55:03;54.90;;;27.93;;
19285;SDS011;9776;50.798;6.430;2024-01-11T11:57:31;47.43;;;23.47;;
19285;SDS011;9776;50.798;6.430;2024-01-11T11:59:58;50.50;;;27.63;;
19285;SDS011;9776;50.798;6.430;2024-01-11T12:02:26;47.42;;;25.27;;
19285;SDS011;9776;50.798;6.430;2024-01-11T12:04:53;49.72;;;24.00;;
19285;SDS011;9776;50.798;6.430;2024-01-11T12:07:22;47.55;;;23.55;;
19285;SDS011;9776;50.798;6.430;2024-01-11T12:09:49;60.15;;;29.02;;
19285;SDS011;9776;50.798;6.430;2024-01-11T12:12:17;57.97;;;30.55;;
19285;SDS011;9776;50.798;6.430;2024-01-11T12:14:46;51.03;;;27.73;;
19285;SDS011;9776;50.798;6.430;2024-01-11T12:17:12;49.72;;;24.50;;
19285;SDS011;9776;50.798;6.430;2024-01-11T12:19:39;48.72;;;25.30;;
19285;SDS011;9776;50.798;6.430;2024-01-11T12:22:06;53.45;;;29.75;;
19285;SDS011;9776;50.798;6.430;2024-01-11T12:24:34;50.55;;;28.27;;
19285;SDS011;9776;50.798;6.430;2024-01-11T12:27:02;51.72;;;29.27;;
19285;SDS011;9776;50.798;6.430;2024-01-11T12:29:29;52.72;;;27.60;;
19285;SDS011;9776;50.798;6.430;2024-01-11T12:31:56;81.40;;;59.25;;
19285;SDS011;9776;50.798;6.430;2024-01-11T12:34:23;123.82;;;107.65;;
19285;SDS011;9776;50.798;6.430;2024-01-11T12:36:54;57.22;;;36.22;;
19285;SDS011;9776;50.798;6.430;2024-01-11T12:39:25;59.33;;;35.05;;
19285;SDS011;9776;50.798;6.430;2024-01-11T12:41:55;48.75;;;24.95;;
19285;SDS011;9776;50.798;6.430;2024-01-11T12:44:23;60.53;;;29.40;;
19285;SDS011;9776;50.798;6.430;2024-01-11T12:46:51;61.22;;;35.15;;
19285;SDS011;9776;50.798;6.430;2024-01-11T12:49:18;49.42;;;27.20;;
19285;SDS011;9776;50.798;6.430;2024-01-11T12:51:45;52.13;;;31.15;;
19285;SDS011;9776;50.798;6.430;2024-01-11T12:54:12;58.03;;;34.88;;
19285;SDS011;9776;50.798;6.430;2024-01-11T12:56:40;52.50;;;28.52;;
19285;SDS011;9776;50.798;6.430;2024-01-11T12:59:09;44.33;;;24.63;;
19285;SDS011;9776;50.798;6.430;2024-01-11T13:01:37;51.28;;;32.25;;
19285;SDS011;9776;50.798;6.430;2024-01-11T13:04:04;47.67;;;30.70;;
19285;SDS011;9776;50.798;6.430;2024-01-11T13:06:33;54.67;;;34.55;;
19285;SDS011;9776;50.798;6.430;2024-01-11T13:09:00;65.18;;;45.08;;
19285;SDS011;9776;50.798;6.430;2024-01-11T13:11:28;58.00;;;37.15;;
19285;SDS011;9776;50.798;6.430;2024-01-11T13:13:55;73.32;;;50.38;;
19285;SDS011;9776;50.798;6.430;2024-01-11T13:16:25;61.00;;;40.78;;
19285;SDS011;9776;50.798;6.430;2024-01-11T13:18:52;52.50;;;33.67;;
19285;SDS011;9776;50.798;6.430;2024-01-11T13:21:19;45.53;;;27.00;;
19285;SDS011;9776;50.798;6.430;2024-01-11T13:23:46;49.88;;;25.73;;
19285;SDS011;9776;50.798;6.430;2024-01-11T13:26:13;45.95;;;27.50;;
19285;SDS011;9776;50.798;6.430;2024-01-11T13:28:40;51.05;;;31.50;;
19285;SDS011;9776;50.798;6.430;2024-01-11T13:31:07;42.45;;;24.45;;
19285;SDS011;9776;50.798;6.430;2024-01-11T13:33:37;42.30;;;23.65;;
19285;SDS011;9776;50.798;6.430;2024-01-11T13:36:04;49.63;;;26.85;;
19285;SDS011;9776;50.798;6.430;2024-01-11T13:38:32;49.10;;;24.15;;
19285;SDS011;9776;50.798;6.430;2024-01-11T13:40:59;49.83;;;27.60;;
19285;SDS011;9776;50.798;6.430;2024-01-11T13:43:26;52.70;;;28.15;;
19285;SDS011;9776;50.798;6.430;2024-01-11T13:45:53;57.28;;;28.08;;
19285;SDS011;9776;50.798;6.430;2024-01-11T13:48:20;44.20;;;23.10;;
19285;SDS011;9776;50.798;6.430;2024-01-11T13:50:49;52.65;;;26.73;;
19285;SDS011;9776;50.798;6.430;2024-01-11T13:53:16;60.67;;;29.15;;
19285;SDS011;9776;50.798;6.430;2024-01-11T13:55:42;81.95;;;35.15;;
19285;SDS011;9776;50.798;6.430;2024-01-11T13:58:09;48.70;;;24.25;;
19285;SDS011;9776;50.798;6.430;2024-01-11T14:00:37;65.68;;;29.90;;
19285;SDS011;9776;50.798;6.430;2024-01-11T14:03:04;64.38;;;30.15;;
19285;SDS011;9776;50.798;6.430;2024-01-11T14:05:31;62.33;;;29.88;;
19285;SDS011;9776;50.798;6.430;2024-01-11T14:08:00;45.13;;;23.05;;
19285;SDS011;9776;50.798;6.430;2024-01-11T14:10:30;44.95;;;23.08;;
19285;SDS011;9776;50.798;6.430;2024-01-11T14:12:57;48.50;;;24.33;;
19285;SDS011;9776;50.798;6.430;2024-01-11T14:15:24;58.85;;;26.98;;
19285;SDS011;9776;50.798;6.430;2024-01-11T14:17:51;52.05;;;25.90;;
19285;SDS011;9776;50.798;6.430;2024-01-11T14:20:18;43.85;;;22.77;;
19285;SDS011;9776;50.798;6.430;2024-01-11T14:22:46;45.55;;;23.60;;
19285;SDS011;9776;50.798;6.430;2024-01-11T14:25:17;44.45;;;23.65;;
19285;SDS011;9776;50.798;6.430;2024-01-11T14:27:45;48.97;;;24.60;;
19285;SDS011;9776;50.798;6.430;2024-01-11T14:30:13;45.33;;;23.17;;
19285;SDS011;9776;50.798;6.430;2024-01-11T14:32:40;51.28;;;23.48;;
19285;SDS011;9776;50.798;6.430;2024-01-11T14:35:07;52.05;;;27.52;;